Time;durP1;ratioP1;P1;durP2;ratioP2;P2;SDS_P1;SDS_P2;PMS_P1;PMS_P2;Temp;Humidity;BMP_temperature;BMP_pressure;BME280_temperature;BME280_humidity;BME280_pressure;Samples;Min_cycle;Max_cycle;Signal;HPM_P1;HPM_P2
2021/04/11 00:01:14;;;;;;;7.88;6.20;;;;;;;;;;5121401;28;20023;-51
2021/04/11 00:03:40;;;;;;;8.00;5.47;;;;;;;;;;5125366;27;20027;-51
2021/04/11 00:06:05;;;;;;;7.97;5.72;;;;;;;;;;5114010;28;20729;-50
2021/04/11 00:08:30;;;;;;;7.90;5.95;;;;;;;;;;5122710;28;20045;-53
2021/04/11 00:11:00;;;;;;;6.97;5.55;;;;;;;;;;5123298;28;20371;-54
2021/04/11 00:13:27;;;;;;;7.95;5.53;;;;;;;;;;5125109;28;20022;-52
2021/04/11 00:15:52;;;;;;;8.50;5.38;;;;;;;;;;5131741;27;20023;-52
2021/04/11 00:18:18;;;;;;;7.35;5.55;;;;;;;;;;5121437;27;20442;-53
2021/04/11 00:20:43;;;;;;;5.90;4.60;;;;;;;;;;5119762;27;20024;-53
2021/04/11 00:23:09;;;;;;;6.03;4.72;;;;;;;;;;5118659;27;20076;-52
2021/04/11 00:25:35;;;;;;;6.00;4.65;;;;;;;;;;5134444;27;20103;-52
2021/04/11 00:28:00;;;;;;;8.13;4.43;;;;;;;;;;5136217;27;20485;-51
2021/04/11 00:30:26;;;;;;;6.38;4.95;;;;;;;;;;5132603;27;20024;-51
2021/04/11 00:32:55;;;;;;;6.75;4.60;;;;;;;;;;5123377;27;20016;-47
2021/04/11 00:35:21;;;;;;;7.80;4.65;;;;;;;;;;5129025;27;20039;-50
2021/04/11 00:37:46;;;;;;;7.30;4.90;;;;;;;;;;5125101;27;20015;-50
2021/04/11 00:40:14;;;;;;;5.50;4.32;;;;;;;;;;5124834;27;20821;-52
2021/04/11 00:42:42;;;;;;;6.43;4.82;;;;;;;;;;5132692;27;20030;-53
2021/04/11 00:45:16;;;;;;;7.65;4.38;;;;;;;;;;5127678;27;20386;-52
2021/04/11 00:47:42;;;;;;;7.38;4.15;;;;;;;;;;5135478;27;20047;-53
2021/04/11 00:50:09;;;;;;;5.78;4.57;;;;;;;;;;5123372;27;20092;-52
2021/04/11 00:52:35;;;;;;;6.82;4.40;;;;;;;;;;5120508;27;20084;-52
2021/04/11 00:55:00;;;;;;;6.35;4.90;;;;;;;;;;5123497;27;20007;-54
2021/04/11 00:57:26;;;;;;;6.07;4.70;;;;;;;;;;5127970;27;20011;-50
2021/04/11 00:59:51;;;;;;;7.35;4.20;;;;;;;;;;5132442;27;20098;-49
2021/04/11 01:02:16;;;;;;;7.10;4.07;;;;;;;;;;5120035;27;20023;-48
2021/04/11 01:04:42;;;;;;;5.82;4.72;;;;;;;;;;5123622;27;20055;-51
2021/04/11 01:07:09;;;;;;;7.80;5.15;;;;;;;;;;5135503;27;20105;-51
2021/04/11 01:09:37;;;;;;;6.38;4.55;;;;;;;;;;5114926;28;20025;-52
2021/04/11 01:12:04;;;;;;;5.75;4.63;;;;;;;;;;5122472;27;20038;-54
2021/04/11 01:14:31;;;;;;;6.97;4.75;;;;;;;;;;5122756;27;20065;-51
2021/04/11 01:16:57;;;;;;;6.40;4.50;;;;;;;;;;5114717;28;20027;-49
2021/04/11 01:19:27;;;;;;;6.15;4.38;;;;;;;;;;5116158;27;20023;-51
2021/04/11 01:22:11;;;;;;;9.25;4.80;;;;;;;;;;5129660;27;20050;-53
2021/04/11 01:25:06;;;;;;;7.07;4.53;;;;;;;;;;5129217;27;20548;-50
2021/04/11 01:27:32;;;;;;;6.45;4.55;;;;;;;;;;5115528;27;20027;-52
2021/04/11 01:29:58;;;;;;;5.50;4.38;;;;;;;;;;5122187;27;20076;-51
2021/04/11 01:32:23;;;;;;;7.15;4.70;;;;;;;;;;5115780;27;20023;-52
2021/04/11 01:34:51;;;;;;;6.47;4.10;;;;;;;;;;5128098;27;20043;-53
2021/04/11 01:37:17;;;;;;;6.97;4.57;;;;;;;;;;5122578;27;20030;-53
2021/04/11 01:39:43;;;;;;;7.20;4.35;;;;;;;;;;5126843;27;20390;-50
2021/04/11 01:42:09;;;;;;;7.15;4.80;;;;;;;;;;5130534;27;20375;-49
2021/04/11 01:44:36;;;;;;;7.43;4.55;;;;;;;;;;5120583;27;20066;-51
2021/04/11 01:47:02;;;;;;;6.72;5.35;;;;;;;;;;5130776;27;20027;-52
2021/04/11 01:49:27;;;;;;;8.90;4.93;;;;;;;;;;5129153;27;20122;-53
2021/04/11 01:51:59;;;;;;;7.38;4.90;;;;;;;;;;5115453;27;20069;-50
2021/04/11 01:54:26;;;;;;;6.00;4.68;;;;;;;;;;5128462;27;20117;-54
2021/04/11 01:56:51;;;;;;;8.23;5.03;;;;;;;;;;5117671;27;20066;-49
2021/04/11 01:59:22;;;;;;;6.32;5.10;;;;;;;;;;5114309;28;20069;-51
2021/04/11 02:01:49;;;;;;;10.02;5.70;;;;;;;;;;5113535;27;20499;-51
2021/04/11 02:04:14;;;;;;;8.43;5.90;;;;;;;;;;5125511;27;20036;-54
2021/04/11 02:06:50;;;;;;;7.82;5.10;;;;;;;;;;5133582;27;20106;-51
2021/04/11 02:09:23;;;;;;;7.57;5.25;;;;;;;;;;5134599;27;20056;-52
2021/04/11 02:11:49;;;;;;;8.18;6.25;;;;;;;;;;5130955;27;20016;-50
2021/04/11 02:14:14;;;;;;;6.03;5.43;;;;;;;;;;5125759;27;20034;-49
2021/04/11 02:16:40;;;;;;;8.88;6.65;;;;;;;;;;5122959;27;20031;-53
2021/04/11 02:19:14;;;;;;;10.82;6.97;;;;;;;;;;5132126;27;20702;-54
2021/04/11 02:21:40;;;;;;;8.68;6.15;;;;;;;;;;5115402;27;20027;-54
2021/04/11 02:24:08;;;;;;;8.80;6.10;;;;;;;;;;5130820;27;20282;-53
2021/04/11 02:26:33;;;;;;;9.82;6.60;;;;;;;;;;5131464;27;20508;-54
2021/04/11 02:28:59;;;;;;;8.80;6.55;;;;;;;;;;5134079;27;20015;-52
2021/04/11 02:31:24;;;;;;;6.75;5.10;;;;;;;;;;5130576;27;20440;-49
2021/04/11 02:33:52;;;;;;;6.90;5.07;;;;;;;;;;5124279;27;20039;-51
2021/04/11 02:36:19;;;;;;;8.90;5.38;;;;;;;;;;5124347;27;20137;-50
2021/04/11 02:38:45;;;;;;;6.85;5.10;;;;;;;;;;5133188;27;20031;-52
2021/04/11 02:41:11;;;;;;;7.65;5.38;;;;;;;;;;5127036;27;20019;-50
2021/04/11 02:43:37;;;;;;;6.65;5.03;;;;;;;;;;5126725;27;20307;-54
2021/04/11 02:46:02;;;;;;;8.95;5.03;;;;;;;;;;5113416;28;20455;-52
2021/04/11 02:48:28;;;;;;;7.50;5.53;;;;;;;;;;5122491;27;20023;-53
2021/04/11 02:50:53;;;;;;;8.35;4.78;;;;;;;;;;5111778;28;20096;-48
2021/04/11 02:53:20;;;;;;;8.48;5.13;;;;;;;;;;5114702;27;20451;-53
2021/04/11 02:55:46;;;;;;;5.63;4.95;;;;;;;;;;5122175;27;20364;-52
2021/04/11 02:58:12;;;;;;;7.90;5.38;;;;;;;;;;5120984;27;20060;-53
2021/04/11 03:00:42;;;;;;;8.13;5.63;;;;;;;;;;5131859;27;20027;-49
2021/04/11 03:03:07;;;;;;;8.10;5.55;;;;;;;;;;5119446;27;20387;-52
2021/04/11 03:05:33;;;;;;;7.78;5.47;;;;;;;;;;5133537;27;20016;-51
2021/04/11 03:08:00;;;;;;;9.52;5.38;;;;;;;;;;5131060;27;20450;-49
2021/04/11 03:10:28;;;;;;;7.95;5.35;;;;;;;;;;5120305;27;20024;-51
2021/04/11 03:12:53;;;;;;;10.98;5.80;;;;;;;;;;5109798;28;20452;-51
2021/04/11 03:15:20;;;;;;;7.32;5.75;;;;;;;;;;5112899;28;20035;-48
2021/04/11 03:17:48;;;;;;;7.18;5.28;;;;;;;;;;5113163;28;20023;-50
2021/04/11 03:20:14;;;;;;;8.77;5.68;;;;;;;;;;5120709;28;20440;-51
2021/04/11 03:22:40;;;;;;;8.27;5.53;;;;;;;;;;5129986;27;20055;-52
2021/04/11 03:25:06;;;;;;;8.98;6.05;;;;;;;;;;5125715;27;20392;-50
2021/04/11 03:27:39;;;;;;;10.48;6.28;;;;;;;;;;5117055;27;20526;-52
2021/04/11 03:30:07;;;;;;;7.82;5.80;;;;;;;;;;5119879;27;20389;-50
2021/04/11 03:32:36;;;;;;;9.93;6.15;;;;;;;;;;5129982;27;20029;-52
2021/04/11 03:35:03;;;;;;;8.95;5.82;;;;;;;;;;5128176;28;20054;-49
2021/04/11 03:37:29;;;;;;;9.73;5.80;;;;;;;;;;5118686;27;20109;-50
2021/04/11 03:39:54;;;;;;;9.40;5.80;;;;;;;;;;5114397;28;20059;-50
2021/04/11 03:42:21;;;;;;;8.20;5.68;;;;;;;;;;5117525;28;20065;-51
2021/04/11 03:44:46;;;;;;;6.82;5.50;;;;;;;;;;5116100;27;20054;-53
2021/04/11 03:47:31;;;;;;;9.32;6.03;;;;;;;;;;5121715;27;20451;-51
2021/04/11 03:50:02;;;;;;;8.32;5.75;;;;;;;;;;5113839;28;20034;-52
2021/04/11 03:52:33;;;;;;;8.05;6.13;;;;;;;;;;5127460;27;20058;-49
2021/04/11 03:55:01;;;;;;;9.82;5.60;;;;;;;;;;5127949;27;20011;-53
2021/04/11 03:57:28;;;;;;;9.82;6.20;;;;;;;;;;5120340;27;20098;-49
2021/04/11 04:00:00;;;;;;;9.00;6.38;;;;;;;;;;5123733;27;20487;-52
2021/04/11 04:02:27;;;;;;;10.82;6.07;;;;;;;;;;5114547;27;20028;-49
2021/04/11 04:04:53;;;;;;;8.45;5.90;;;;;;;;;;5124571;27;20138;-52
2021/04/11 04:07:20;;;;;;;9.93;5.97;;;;;;;;;;5121345;27;20066;-51
2021/04/11 04:09:51;;;;;;;10.73;6.28;;;;;;;;;;5136738;27;20011;-49
2021/04/11 04:12:25;;;;;;;8.00;5.88;;;;;;;;;;5125731;27;20063;-51
2021/04/11 04:14:59;;;;;;;9.18;5.95;;;;;;;;;;5125424;27;20050;-54
2021/04/11 04:17:42;;;;;;;8.25;5.93;;;;;;;;;;5128327;27;20111;-50
2021/04/11 04:20:17;;;;;;;8.82;5.30;;;;;;;;;;5125884;27;20076;-53
2021/04/11 04:22:48;;;;;;;10.13;6.27;;;;;;;;;;5126324;27;20024;-48
2021/04/11 04:25:20;;;;;;;8.43;5.90;;;;;;;;;;5116531;27;20258;-52
2021/04/11 04:28:00;;;;;;;8.85;5.90;;;;;;;;;;5125233;27;20019;-50
2021/04/11 04:30:54;;;;;;;9.48;5.93;;;;;;;;;;5116043;27;20050;-51
2021/04/11 04:33:26;;;;;;;8.25;6.28;;;;;;;;;;5032028;28;20112;-54
2021/04/11 04:35:56;;;;;;;9.57;6.35;;;;;;;;;;5033024;28;20030;-48
2021/04/11 04:38:21;;;;;;;9.38;6.13;;;;;;;;;;5020098;28;20033;-52
2021/04/11 04:41:05;;;;;;;9.15;6.28;;;;;;;;;;5046595;28;20083;-50
2021/04/11 04:43:38;;;;;;;9.10;6.35;;;;;;;;;;5045227;28;20051;-47
2021/04/11 04:46:18;;;;;;;9.65;6.38;;;;;;;;;;5035749;28;20028;-50
2021/04/11 04:48:55;;;;;;;7.70;6.25;;;;;;;;;;5038922;28;20021;-53
2021/04/11 04:51:27;;;;;;;10.23;6.57;;;;;;;;;;5049105;28;20136;-49
2021/04/11 04:54:10;;;;;;;8.77;6.45;;;;;;;;;;5043713;28;20044;-46
2021/04/11 04:56:37;;;;;;;12.38;7.32;;;;;;;;;;5033775;28;20029;-51
2021/04/11 04:59:09;;;;;;;8.88;6.70;;;;;;;;;;5038021;28;20032;-53
2021/04/11 05:01:37;;;;;;;11.20;6.38;;;;;;;;;;5034640;28;20076;-52
2021/04/11 05:04:05;;;;;;;9.70;6.68;;;;;;;;;;5042253;28;20087;-53
2021/04/11 05:06:31;;;;;;;8.70;6.38;;;;;;;;;;5043646;28;20049;-48
2021/04/11 05:09:00;;;;;;;11.88;6.50;;;;;;;;;;5047580;28;20038;-48
2021/04/11 05:11:32;;;;;;;10.77;6.80;;;;;;;;;;5119327;27;20061;-50
2021/04/11 05:14:00;;;;;;;9.73;7.00;;;;;;;;;;5131795;27;20022;-49
2021/04/11 05:16:31;;;;;;;9.38;6.90;;;;;;;;;;5127081;27;20103;-51
2021/04/11 05:19:07;;;;;;;10.77;7.60;;;;;;;;;;5124986;27;20043;-53
2021/04/11 05:21:36;;;;;;;9.82;8.07;;;;;;;;;;5127820;27;20024;-53
2021/04/11 05:24:07;;;;;;;11.57;8.32;;;;;;;;;;5129824;27;20041;-49
2021/04/11 05:26:45;;;;;;;10.55;7.65;;;;;;;;;;5123710;27;20054;-53
2021/04/11 05:29:25;;;;;;;11.30;7.70;;;;;;;;;;5134468;27;20102;-50
2021/04/11 05:31:52;;;;;;;8.75;7.63;;;;;;;;;;5132124;27;20547;-49
2021/04/11 05:34:19;;;;;;;11.07;8.10;;;;;;;;;;5119708;27;20033;-51
2021/04/11 05:36:57;;;;;;;12.23;8.38;;;;;;;;;;5127783;27;20046;-49
2021/04/11 05:39:35;;;;;;;11.52;8.20;;;;;;;;;;5119884;27;20443;-52
2021/04/11 05:42:03;;;;;;;10.73;8.50;;;;;;;;;;5131403;27;20031;-52
2021/04/11 05:44:36;;;;;;;14.07;8.73;;;;;;;;;;5118117;27;20027;-53
2021/04/11 05:47:22;;;;;;;11.43;8.73;;;;;;;;;;5114431;27;20115;-53
2021/04/11 05:49:49;;;;;;;10.98;8.43;;;;;;;;;;5118953;27;20033;-47
2021/04/11 05:52:17;;;;;;;11.38;8.95;;;;;;;;;;5130222;27;20047;-53
2021/04/11 05:54:46;;;;;;;11.90;9.30;;;;;;;;;;5120899;27;20034;-52
2021/04/11 05:57:23;;;;;;;10.20;8.10;;;;;;;;;;5120427;27;20020;-55
2021/04/11 06:00:00;;;;;;;11.70;9.35;;;;;;;;;;5127095;27;20031;-48
2021/04/11 06:02:28;;;;;;;12.27;8.75;;;;;;;;;;5122018;27;20025;-50
2021/04/11 06:05:00;;;;;;;10.52;7.82;;;;;;;;;;5129623;27;20051;-52
2021/04/11 06:07:30;;;;;;;12.57;8.40;;;;;;;;;;5114500;27;20016;-54
2021/04/11 06:10:06;;;;;;;10.35;8.50;;;;;;;;;;5121011;27;20099;-55
2021/04/11 06:12:36;;;;;;;12.38;9.13;;;;;;;;;;5116532;27;20098;-54
2021/04/11 06:15:16;;;;;;;11.95;8.85;;;;;;;;;;5124428;27;20509;-51
2021/04/11 06:17:46;;;;;;;13.07;9.15;;;;;;;;;;5127034;27;20461;-53
2021/04/11 06:20:11;;;;;;;10.80;8.65;;;;;;;;;;5121659;27;20485;-51
2021/04/11 06:22:47;;;;;;;12.95;8.40;;;;;;;;;;5127253;27;20027;-52
2021/04/11 06:25:30;;;;;;;12.98;8.25;;;;;;;;;;5131367;27;20086;-53
2021/04/11 06:27:58;;;;;;;10.95;7.90;;;;;;;;;;5129415;27;20126;-52
2021/04/11 06:30:32;;;;;;;11.30;7.95;;;;;;;;;;5133776;27;20432;-51
2021/04/11 06:33:16;;;;;;;11.50;8.63;;;;;;;;;;5119079;27;20026;-51
2021/04/11 06:35:44;;;;;;;10.10;7.63;;;;;;;;;;5130398;27;20107;-51
2021/04/11 06:38:12;;;;;;;13.00;8.13;;;;;;;;;;5124042;27;20432;-51
2021/04/11 06:40:55;;;;;;;12.13;7.70;;;;;;;;;;5113086;28;20051;-51
2021/04/11 06:43:29;;;;;;;9.60;7.93;;;;;;;;;;5118986;27;20038;-52
2021/04/11 06:46:04;;;;;;;12.83;7.43;;;;;;;;;;5124188;27;20012;-51
2021/04/11 06:48:29;;;;;;;;;;;;;;;;;;5123861;27;20265;-51
2021/04/11 06:50:54;;;;;;;8.35;6.68;;;;;;;;;;5124861;27;20400;-53
2021/04/11 06:53:32;;;;;;;10.68;7.40;;;;;;;;;;5131930;27;20015;-50
2021/04/11 06:56:16;;;;;;;9.25;7.07;;;;;;;;;;5132671;27;20023;-53
2021/04/11 06:58:47;;;;;;;9.93;6.82;;;;;;;;;;5126324;27;20020;-52
2021/04/11 07:01:28;;;;;;;11.98;6.75;;;;;;;;;;5114094;27;20569;-54
2021/04/11 07:04:32;;;;;;;10.57;7.40;;;;;;;;;;5116922;27;20042;-50
2021/04/11 07:07:15;;;;;;;9.57;6.80;;;;;;;;;;5035945;28;20042;-54
2021/04/11 07:09:43;;;;;;;10.70;7.53;;;;;;;;;;5038782;28;20070;-51
2021/04/11 07:12:21;;;;;;;8.10;5.10;;;;;;;;;;5046386;28;20033;-51
2021/04/11 07:15:03;;;;;;;9.48;7.38;;;;;;;;;;5048959;28;20028;-53
2021/04/11 07:17:43;;;;;;;11.63;7.13;;;;;;;;;;5040347;28;20696;-54
2021/04/11 07:20:11;;;;;;;10.13;7.03;;;;;;;;;;5044468;28;20124;-51
2021/04/11 07:22:55;;;;;;;8.07;6.28;;;;;;;;;;5039647;28;20025;-51
2021/04/11 07:25:23;;;;;;;10.32;6.70;;;;;;;;;;5049925;28;20098;-51
2021/04/11 07:28:03;;;;;;;10.25;7.32;;;;;;;;;;5053567;28;20143;-52
2021/04/11 07:30:50;;;;;;;8.77;6.72;;;;;;;;;;5042161;28;20036;-52
2021/04/11 07:33:15;;;;;;;9.82;6.35;;;;;;;;;;5051548;28;20159;-50
2021/04/11 07:35:46;;;;;;;7.18;6.00;;;;;;;;;;5041174;28;20116;-53
2021/04/11 07:38:14;;;;;;;9.52;6.90;;;;;;;;;;5107714;27;20038;-54
2021/04/11 07:40:47;;;;;;;9.73;6.25;;;;;;;;;;5133353;27;20022;-51
2021/04/11 07:43:13;;;;;;;9.13;6.57;;;;;;;;;;5114275;28;20470;-50
2021/04/11 07:45:48;;;;;;;9.80;7.05;;;;;;;;;;5117030;27;20030;-50
2021/04/11 07:48:19;;;;;;;10.48;6.72;;;;;;;;;;5123479;27;20072;-53
2021/04/11 07:50:55;;;;;;;7.85;6.07;;;;;;;;;;5131451;27;20039;-52
2021/04/11 07:53:35;;;;;;;8.00;6.00;;;;;;;;;;5135539;27;20128;-53
2021/04/11 07:56:22;;;;;;;7.15;6.05;;;;;;;;;;5131970;27;20019;-50
2021/04/11 07:59:06;;;;;;;9.57;6.90;;;;;;;;;;5130751;27;20042;-48
2021/04/11 08:01:43;;;;;;;12.38;6.47;;;;;;;;;;5133984;27;20054;-53
2021/04/11 08:04:18;;;;;;;8.32;6.57;;;;;;;;;;5122938;27;20445;-51
2021/04/11 08:07:01;;;;;;;7.75;6.30;;;;;;;;;;5135068;27;20015;-51
2021/04/11 08:09:32;;;;;;;9.63;6.10;;;;;;;;;;5122350;27;20446;-54
2021/04/11 08:12:16;;;;;;;9.07;5.88;;;;;;;;;;5121936;27;20050;-53
2021/04/11 08:14:50;;;;;;;8.23;5.82;;;;;;;;;;5116861;27;20019;-51
2021/04/11 08:17:25;;;;;;;7.37;5.63;;;;;;;;;;5118623;27;20103;-54
2021/04/11 08:20:01;;;;;;;7.57;6.15;;;;;;;;;;5136200;27;20031;-53
2021/04/11 08:22:45;;;;;;;9.77;5.70;;;;;;;;;;5112987;28;20367;-52
2021/04/11 08:25:29;;;;;;;8.07;5.90;;;;;;;;;;5126611;27;20034;-51
2021/04/11 08:27:57;;;;;;;6.85;5.95;;;;;;;;;;5127368;27;20027;-51
2021/04/11 08:30:42;;;;;;;6.43;5.10;;;;;;;;;;5118646;27;20106;-52
2021/04/11 08:33:07;;;;;;;;;;;;;;;;;;5127213;27;20035;-52
2021/04/11 08:35:35;;;;;;;8.43;5.45;;;;;;;;;;5131038;27;19907;-54
2021/04/11 08:38:19;;;;;;;7.78;5.03;;;;;;;;;;5124462;27;20023;-48
2021/04/11 08:41:04;;;;;;;8.60;5.57;;;;;;;;;;5128073;27;20375;-52
2021/04/11 08:43:30;;;;;;;;;;;;;;;;;;5116360;27;20093;-53
2021/04/11 08:46:10;;;;;;;8.45;4.53;;;;;;;;;;5122506;27;19907;-54
2021/04/11 08:48:46;;;;;;;6.68;4.70;;;;;;;;;;5120621;27;20015;-54
2021/04/11 08:51:12;;;;;;;6.07;4.60;;;;;;;;;;5117218;27;20103;-53
2021/04/11 08:53:37;;;;;;;10.20;5.00;;;;;;;;;;5122956;27;21131;-52
2021/04/11 08:56:08;;;;;;;6.00;4.40;;;;;;;;;;5124084;27;20091;-53
2021/04/11 08:58:41;;;;;;;8.23;4.75;;;;;;;;;;5120803;27;20310;-52
2021/04/11 09:01:10;;;;;;;7.65;3.67;;;;;;;;;;5130176;27;20027;-52
2021/04/11 09:03:57;;;;;;;6.95;4.32;;;;;;;;;;5115557;28;20030;-55
2021/04/11 09:06:49;;;;;;;7.22;4.25;;;;;;;;;;5119791;27;20019;-52
2021/04/11 09:09:23;;;;;;;6.10;4.38;;;;;;;;;;5090703;28;20111;-51
2021/04/11 09:11:57;;;;;;;4.70;3.70;;;;;;;;;;5122570;27;20475;-54
2021/04/11 09:14:31;;;;;;;6.47;4.15;;;;;;;;;;5114758;27;20311;-51
2021/04/11 09:17:05;;;;;;;6.13;3.60;;;;;;;;;;5119187;27;20019;-54
2021/04/11 09:19:30;;;;;;;4.40;3.67;;;;;;;;;;5114016;27;20261;-51
2021/04/11 09:22:07;;;;;;;6.18;3.63;;;;;;;;;;5127191;27;20027;-49
2021/04/11 09:24:43;;;;;;;7.25;4.03;;;;;;;;;;5123834;27;20422;-53
2021/04/11 09:27:26;;;;;;;7.13;4.03;;;;;;;;;;5122705;27;20359;-48
2021/04/11 09:29:52;;;;;;;4.45;3.17;;;;;;;;;;5113985;27;20019;-53
2021/04/11 09:32:36;;;;;;;4.53;3.10;;;;;;;;;;5121351;27;20027;-51
2021/04/11 09:35:13;;;;;;;5.63;3.53;;;;;;;;;;5114440;28;20501;-50
2021/04/11 09:37:58;;;;;;;4.93;3.15;;;;;;;;;;5115931;27;20024;-50
2021/04/11 09:40:46;;;;;;;4.43;3.23;;;;;;;;;;5118215;27;20015;-51
2021/04/11 09:43:38;;;;;;;3.70;3.15;;;;;;;;;;5044207;28;20040;-53
2021/04/11 09:46:10;;;;;;;4.72;3.00;;;;;;;;;;5045779;28;20037;-52
2021/04/11 09:48:44;;;;;;;4.68;3.13;;;;;;;;;;5041669;28;20045;-50
2021/04/11 09:51:10;;;;;;;6.28;2.95;;;;;;;;;;5047212;28;20540;-49
2021/04/11 09:53:41;;;;;;;4.88;3.25;;;;;;;;;;5049919;28;20037;-53
2021/04/11 09:56:12;;;;;;;6.00;3.22;;;;;;;;;;5050464;28;20531;-51
2021/04/11 09:59:01;;;;;;;5.05;3.45;;;;;;;;;;5046359;28;20037;-52
2021/04/11 10:01:39;;;;;;;5.75;3.40;;;;;;;;;;5048492;28;20041;-48
2021/04/11 10:04:10;;;;;;;4.55;2.88;;;;;;;;;;5049808;28;20033;-54
2021/04/11 10:06:48;;;;;;;4.25;3.17;;;;;;;;;;5049956;28;20388;-51
2021/04/11 10:09:18;;;;;;;3.90;2.95;;;;;;;;;;5049981;28;20036;-52
2021/04/11 10:11:58;;;;;;;5.82;3.08;;;;;;;;;;5047477;28;20100;-52
2021/04/11 10:14:42;;;;;;;4.72;2.67;;;;;;;;;;5049349;28;20032;-53
2021/04/11 10:17:14;;;;;;;5.35;2.97;;;;;;;;;;5049872;28;20104;-48
2021/04/11 10:19:42;;;;;;;4.80;2.60;;;;;;;;;;5066599;28;20055;-52
2021/04/11 10:22:14;;;;;;;2.95;2.60;;;;;;;;;;5110033;28;20028;-52
2021/04/11 10:24:45;;;;;;;4.03;2.55;;;;;;;;;;5118496;27;20031;-53
2021/04/11 10:27:11;;;;;;;4.45;2.72;;;;;;;;;;5120099;27;20026;-49
2021/04/11 10:29:37;;;;;;;3.70;2.60;;;;;;;;;;5127138;27;20008;-52
2021/04/11 10:32:02;;;;;;;3.75;2.53;;;;;;;;;;5120820;27;20309;-52
2021/04/11 10:34:40;;;;;;;3.53;2.42;;;;;;;;;;5118191;27;20026;-53
2021/04/11 10:37:14;;;;;;;4.35;2.60;;;;;;;;;;5125617;27;20019;-51
2021/04/11 10:39:47;;;;;;;4.53;2.40;;;;;;;;;;5123125;27;20111;-50
2021/04/11 10:42:21;;;;;;;7.30;2.60;;;;;;;;;;5115390;27;20035;-53
2021/04/11 10:45:05;;;;;;;6.32;2.20;;;;;;;;;;5132002;27;20075;-51
2021/04/11 10:47:33;;;;;;;4.53;2.70;;;;;;;;;;5129176;27;20220;-52
2021/04/11 10:50:17;;;;;;;4.93;2.25;;;;;;;;;;5132479;27;20102;-52
2021/04/11 10:52:55;;;;;;;4.27;2.00;;;;;;;;;;5126413;27;20551;-51
2021/04/11 10:55:41;;;;;;;4.57;2.25;;;;;;;;;;5131684;27;20039;-51
2021/04/11 10:58:16;;;;;;;4.50;2.30;;;;;;;;;;5120204;27;20106;-51
2021/04/11 11:00:50;;;;;;;5.97;2.60;;;;;;;;;;5131133;27;20072;-53
2021/04/11 11:03:21;;;;;;;2.83;1.90;;;;;;;;;;5130902;27;20023;-48
2021/04/11 11:06:01;;;;;;;2.72;1.10;;;;;;;;;;5120884;27;20023;-52
2021/04/11 11:08:32;;;;;;;3.05;1.02;;;;;;;;;;5124914;27;20466;-51
2021/04/11 11:11:16;;;;;;;2.38;1.10;;;;;;;;;;5127660;27;20033;-52
2021/04/11 11:13:47;;;;;;;2.38;1.10;;;;;;;;;;5127184;27;20023;-53
2021/04/11 11:16:26;;;;;;;2.40;1.02;;;;;;;;;;5130130;28;20019;-50
2021/04/11 11:19:08;;;;;;;2.90;1.20;;;;;;;;;;5125041;27;20042;-54
2021/04/11 11:21:36;;;;;;;1.10;1.00;;;;;;;;;;5129160;27;20501;-51
2021/04/11 11:24:13;;;;;;;1.50;1.08;;;;;;;;;;5131306;28;20026;-52
2021/04/11 11:26:57;;;;;;;2.47;0.85;;;;;;;;;;5123724;27;20015;-49
2021/04/11 11:29:25;;;;;;;3.67;1.45;;;;;;;;;;5117743;28;20068;-50
2021/04/11 11:31:57;;;;;;;2.05;1.02;;;;;;;;;;5129330;28;20080;-52
2021/04/11 11:34:34;;;;;;;4.13;1.00;;;;;;;;;;5131320;27;20016;-53
2021/04/11 11:37:02;;;;;;;3.10;1.13;;;;;;;;;;5117076;27;20012;-51
2021/04/11 11:39:27;;;;;;;1.77;0.80;;;;;;;;;;5127295;28;20083;-49
2021/04/11 11:42:00;;;;;;;1.47;0.90;;;;;;;;;;5119880;28;20018;-53
2021/04/11 11:44:27;;;;;;;0.80;0.60;;;;;;;;;;5126493;27;20281;-52
2021/04/11 11:46:53;;;;;;;2.47;1.00;;;;;;;;;;5132183;27;20505;-52
2021/04/11 11:49:27;;;;;;;1.65;0.98;;;;;;;;;;5120183;27;20030;-51
2021/04/11 11:52:07;;;;;;;2.13;1.00;;;;;;;;;;5129409;28;20126;-48
2021/04/11 11:54:38;;;;;;;2.60;1.67;;;;;;;;;;5132903;27;20019;-52
2021/04/11 11:57:07;;;;;;;4.35;2.03;;;;;;;;;;5127028;28;20424;-54
2021/04/11 11:59:55;;;;;;;4.07;1.77;;;;;;;;;;5131811;27;20079;-48
2021/04/11 12:02:42;;;;;;;4.63;2.38;;;;;;;;;;5041397;28;20119;-52
2021/04/11 12:05:11;;;;;;;2.60;2.00;;;;;;;;;;5047594;28;20501;-50
2021/04/11 12:07:39;;;;;;;3.58;1.88;;;;;;;;;;5037440;28;20041;-53
2021/04/11 12:10:07;;;;;;;4.68;2.50;;;;;;;;;;5039196;28;20071;-49
2021/04/11 12:12:35;;;;;;;3.50;2.05;;;;;;;;;;5048564;28;20059;-54
2021/04/11 12:15:08;;;;;;;3.50;1.60;;;;;;;;;;5048656;28;20029;-52
2021/04/11 12:17:41;;;;;;;6.40;2.00;;;;;;;;;;5043582;28;20029;-52
2021/04/11 12:20:19;;;;;;;3.55;2.35;;;;;;;;;;5046416;28;20071;-52
2021/04/11 12:22:47;;;;;;;3.53;2.30;;;;;;;;;;5049036;28;20033;-52
2021/04/11 12:25:12;;;;;;;3.60;2.03;;;;;;;;;;5049435;28;20021;-49
2021/04/11 12:27:39;;;;;;;2.40;1.97;;;;;;;;;;5052295;28;20128;-53
2021/04/11 12:30:06;;;;;;;4.13;2.25;;;;;;;;;;5036463;28;20279;-53
2021/04/11 12:32:46;;;;;;;2.92;2.00;;;;;;;;;;5047527;28;20033;-54
2021/04/11 12:35:14;;;;;;;4.60;2.22;;;;;;;;;;5050739;28;20033;-51
2021/04/11 12:37:51;;;;;;;2.40;1.00;;;;;;;;;;5033314;28;20029;-53
2021/04/11 12:40:16;;;;;;;2.35;0.95;;;;;;;;;;5113321;27;20110;-52
2021/04/11 12:42:47;;;;;;;2.50;0.90;;;;;;;;;;5128494;27;20544;-49
2021/04/11 12:45:15;;;;;;;1.45;0.73;;;;;;;;;;5119839;27;20051;-53
2021/04/11 12:47:53;;;;;;;3.13;1.00;;;;;;;;;;5134911;27;20457;-51
2021/04/11 12:50:28;;;;;;;1.38;0.98;;;;;;;;;;5126268;27;20056;-51
2021/04/11 12:52:56;;;;;;;2.30;1.70;;;;;;;;;;5116511;27;20473;-52
2021/04/11 12:55:21;;;;;;;1.58;1.13;;;;;;;;;;5134001;27;20112;-54
2021/04/11 12:58:02;;;;;;;2.37;0.93;;;;;;;;;;5134675;27;20011;-53
2021/04/11 13:00:46;;;;;;;1.38;0.90;;;;;;;;;;5134497;27;20261;-49
2021/04/11 13:03:22;;;;;;;2.35;0.70;;;;;;;;;;5129616;27;20019;-51
2021/04/11 13:06:06;;;;;;;2.70;0.98;;;;;;;;;;5124694;27;20015;-54
2021/04/11 13:08:31;;;;;;;3.63;1.43;;;;;;;;;;5114973;28;20081;-51
2021/04/11 13:10:56;;;;;;;2.10;1.00;;;;;;;;;;5130918;27;20011;-51
2021/04/11 13:13:30;;;;;;;2.40;1.30;;;;;;;;;;5133849;27;20443;-50
2021/04/11 13:15:56;;;;;;;;;;;;;;;;;;5132862;27;20069;-53
2021/04/11 13:18:31;;;;;;;1.97;1.10;;;;;;;;;;5119166;27;20354;-51
2021/04/11 13:21:05;;;;;;;1.35;1.08;;;;;;;;;;5133106;27;20739;-52
2021/04/11 13:23:33;;;;;;;2.17;1.35;;;;;;;;;;5132685;27;20054;-53
2021/04/11 13:26:10;;;;;;;1.70;0.70;;;;;;;;;;5124745;27;20080;-53
2021/04/11 13:28:40;;;;;;;2.00;0.50;;;;;;;;;;5129559;27;20122;-51
2021/04/11 13:31:10;;;;;;;1.58;0.50;;;;;;;;;;5115670;27;20557;-50
2021/04/11 13:33:56;;;;;;;1.15;0.50;;;;;;;;;;5133512;27;20015;-48
2021/04/11 13:36:30;;;;;;;1.70;0.93;;;;;;;;;;5127196;27;20035;-51
2021/04/11 13:38:56;;;;;;;1.63;0.70;;;;;;;;;;5134945;27;20420;-52
2021/04/11 13:41:29;;;;;;;1.83;0.68;;;;;;;;;;5124946;27;20091;-51
2021/04/11 13:44:13;;;;;;;2.30;0.95;;;;;;;;;;5122635;27;20041;-52
2021/04/11 13:46:46;;;;;;;2.13;0.70;;;;;;;;;;5122976;27;20015;-51
2021/04/11 13:49:17;;;;;;;2.35;1.30;;;;;;;;;;5119220;27;20015;-52
2021/04/11 13:51:45;;;;;;;1.45;0.52;;;;;;;;;;5129693;27;20039;-53
2021/04/11 13:54:11;;;;;;;1.38;0.50;;;;;;;;;;5130900;27;20107;-51
2021/04/11 13:56:55;;;;;;;1.83;0.60;;;;;;;;;;5126435;27;20695;-52
2021/04/11 13:59:25;;;;;;;2.40;0.70;;;;;;;;;;5133129;27;20271;-54
2021/04/11 14:01:53;;;;;;;2.10;0.60;;;;;;;;;;5141663;27;20398;-49
2021/04/11 14:04:27;;;;;;;1.42;0.55;;;;;;;;;;5154990;27;20019;-49
2021/04/11 14:07:08;;;;;;;1.85;0.50;;;;;;;;;;5122577;27;20019;-54
2021/04/11 14:09:41;;;;;;;1.27;0.70;;;;;;;;;;5131142;27;20497;-51
2021/04/11 14:12:11;;;;;;;1.73;0.60;;;;;;;;;;5118141;27;20023;-53
2021/04/11 14:14:40;;;;;;;2.03;0.77;;;;;;;;;;5132493;27;20035;-52
2021/04/11 14:17:08;;;;;;;1.63;0.77;;;;;;;;;;5132359;27;20289;-52
2021/04/11 14:19:42;;;;;;;1.42;0.50;;;;;;;;;;5132191;27;20019;-53
2021/04/11 14:22:13;;;;;;;0.80;0.60;;;;;;;;;;5129687;27;20117;-53
2021/04/11 14:24:59;;;;;;;1.60;0.52;;;;;;;;;;5132906;27;20370;-51
2021/04/11 14:27:34;;;;;;;0.75;0.50;;;;;;;;;;5128689;27;20455;-51
2021/04/11 14:30:15;;;;;;;1.20;0.68;;;;;;;;;;5122626;27;20016;-52
2021/04/11 14:32:42;;;;;;;4.40;2.10;;;;;;;;;;5120915;27;20022;-52
2021/04/11 14:35:11;;;;;;;3.22;2.28;;;;;;;;;;5120679;27;20417;-52
2021/04/11 14:38:15;;;;;;;4.47;2.50;;;;;;;;;;5119051;27;20558;-53
2021/04/11 14:40:51;;;;;;;4.65;3.70;;;;;;;;;;5045432;28;20028;-51
2021/04/11 14:43:21;;;;;;;5.00;3.22;;;;;;;;;;5050660;28;20048;-50
2021/04/11 14:45:49;;;;;;;4.78;3.30;;;;;;;;;;5051801;28;20037;-50
2021/04/11 14:48:22;;;;;;;5.43;3.58;;;;;;;;;;5045142;28;20108;-51
2021/04/11 14:50:47;;;;;;;5.55;3.95;;;;;;;;;;5044839;28;20091;-51
2021/04/11 14:53:16;;;;;;;5.97;3.90;;;;;;;;;;5039527;28;20440;-54
2021/04/11 14:55:41;;;;;;;5.93;4.57;;;;;;;;;;5048190;28;20100;-52
2021/04/11 14:58:21;;;;;;;4.60;4.07;;;;;;;;;;5063969;28;20567;-50
2021/04/11 15:00:52;;;;;;;5.03;4.53;;;;;;;;;;5070043;28;20805;-52
2021/04/11 15:03:21;;;;;;;7.53;4.20;;;;;;;;;;5048775;28;20527;-54
2021/04/11 15:05:50;;;;;;;5.53;4.30;;;;;;;;;;5048467;28;20206;-53
2021/04/11 15:08:22;;;;;;;6.63;4.47;;;;;;;;;;5049031;28;20506;-54
2021/04/11 15:11:07;;;;;;;7.18;4.35;;;;;;;;;;5065081;28;20367;-51
2021/04/11 15:13:51;;;;;;;6.43;4.47;;;;;;;;;;5125392;27;20019;-48